Terminal Aerodrome Forecast
Issued by NWS

Home | Current Version | Previous Version | Text Only | Print | Product List | Glossary On
Versions: 1 2 3 4 5 6 7 8 9 10 11 12 13
000
FTUS43 KSGF 221720
TAFBBG
TAF
KBBG 221720Z 2218/2318 29008KT P6SM -SHRA BKN090 OVC120
     FM222000 31008KT P6SM BKN080
     FM231000 VRB04KT P6SM SCT100=

USA.gov is the U.S. government's official web portal to all federal, state and local government web resources and services.